createdAt,value
2023-04-25T00:01:05.857Z,6.70
2023-04-25T00:03:33.689Z,5.70
2023-04-25T00:06:04.061Z,6.60
2023-04-25T00:08:31.522Z,5.73
2023-04-25T00:10:58.951Z,6.47
2023-04-25T00:13:26.464Z,7.10
2023-04-25T00:16:01.168Z,5.97
2023-04-25T00:18:29.890Z,5.73
2023-04-25T00:20:57.548Z,6.40
2023-04-25T00:23:25.083Z,6.10
2023-04-25T00:25:52.270Z,6.47
2023-04-25T00:28:19.447Z,5.20
2023-04-25T00:30:46.513Z,6.07
2023-04-25T00:33:13.627Z,5.70
2023-04-25T00:35:40.871Z,6.17
2023-04-25T00:38:07.940Z,5.70
2023-04-25T00:40:35.238Z,6.07
2023-04-25T00:43:02.403Z,5.90
2023-04-25T00:45:30.645Z,6.33
2023-04-25T00:47:58.141Z,5.73
2023-04-25T00:50:25.589Z,6.30
2023-04-25T00:52:52.811Z,5.73
2023-04-25T00:55:19.971Z,5.60
2023-04-25T00:57:47.752Z,5.47
2023-04-25T01:00:15.639Z,5.77
2023-04-25T01:02:46.034Z,5.40
2023-04-25T01:05:13.352Z,5.27
2023-04-25T01:07:41.582Z,5.03
2023-04-25T01:10:09.005Z,5.07
2023-04-25T01:12:36.296Z,4.83
2023-04-25T01:15:03.437Z,4.70
2023-04-25T01:17:30.753Z,5.00
2023-04-25T01:19:58.023Z,5.00
2023-04-25T01:22:25.231Z,4.70
2023-04-25T01:24:52.571Z,4.60
2023-04-25T01:27:19.772Z,5.27
2023-04-25T01:29:47.566Z,4.63
2023-04-25T01:32:16.063Z,4.90
2023-04-25T01:34:43.484Z,5.03
2023-04-25T01:37:10.592Z,4.47
2023-04-25T01:39:37.795Z,4.70
2023-04-25T01:42:04.912Z,5.30
2023-04-25T01:44:31.970Z,4.67
2023-04-25T01:46:59.157Z,4.70
2023-04-25T01:49:26.271Z,4.97
2023-04-25T01:51:53.459Z,3.97
2023-04-25T01:54:21.246Z,4.63
2023-04-25T01:56:52.216Z,5.00
2023-04-25T01:59:22.690Z,4.23
2023-04-25T02:01:49.928Z,4.87
2023-04-25T02:04:17.329Z,4.50
2023-04-25T02:06:44.575Z,4.40
2023-04-25T02:09:11.665Z,4.20
2023-04-25T02:11:47.854Z,5.10
2023-04-25T02:14:17.407Z,4.50
2023-04-25T02:16:47.653Z,4.60
2023-04-25T02:19:14.763Z,4.00
2023-04-25T02:21:41.904Z,4.40
2023-04-25T02:24:09.675Z,5.23
2023-04-25T02:26:36.989Z,4.07
2023-04-25T02:29:04.119Z,4.23
2023-04-25T02:31:31.297Z,5.73
2023-04-25T02:33:58.367Z,4.73
2023-04-25T02:36:25.483Z,4.30
2023-04-25T02:38:52.899Z,4.87
2023-04-25T02:41:21.968Z,5.13
2023-04-25T02:43:49.309Z,5.50
2023-04-25T02:46:22.842Z,4.33
2023-04-25T02:48:56.118Z,4.90
2023-04-25T02:51:23.216Z,4.37
2023-04-25T02:53:50.440Z,5.60
2023-04-25T02:56:17.768Z,5.33
2023-04-25T02:58:45.477Z,4.80
2023-04-25T03:01:12.647Z,5.00
2023-04-25T03:03:39.726Z,4.73
2023-04-25T03:06:06.884Z,4.83
2023-04-25T03:08:35.332Z,4.80
2023-04-25T03:11:02.455Z,5.73
2023-04-25T03:13:30.813Z,4.60
2023-04-25T03:15:57.909Z,6.03
2023-04-25T03:18:25.023Z,5.63
2023-04-25T03:20:52.085Z,4.63
2023-04-25T03:23:19.177Z,5.00
2023-04-25T03:25:46.548Z,4.40
2023-04-25T03:28:13.651Z,4.93
2023-04-25T03:30:40.909Z,4.23
2023-04-25T03:33:08.106Z,4.80
2023-04-25T03:35:35.227Z,5.07
2023-04-25T03:38:02.287Z,5.27
2023-04-25T03:40:29.504Z,4.83
2023-04-25T03:42:56.618Z,4.80
2023-04-25T03:45:23.956Z,4.73
2023-04-25T03:47:51.435Z,4.20
2023-04-25T03:50:18.569Z,4.97
2023-04-25T03:52:45.684Z,4.97
2023-04-25T03:55:12.771Z,4.60
2023-04-25T03:57:39.828Z,5.67
2023-04-25T04:00:07.589Z,4.57
2023-04-25T04:02:35.942Z,5.23
2023-04-25T04:05:07.203Z,5.20
2023-04-25T04:07:37.431Z,4.77
2023-04-25T04:10:06.300Z,5.07
2023-04-25T04:12:33.346Z,4.90
2023-04-25T04:15:00.750Z,5.27
2023-04-25T04:17:27.908Z,4.43
2023-04-25T04:19:55.934Z,4.80
2023-04-25T04:22:24.055Z,7.20
2023-04-25T04:24:51.147Z,5.83
2023-04-25T04:27:22.346Z,4.37
2023-04-25T04:29:49.553Z,4.97
2023-04-25T04:32:17.153Z,5.37
2023-04-25T04:34:44.198Z,3.90
2023-04-25T04:37:11.303Z,4.87
2023-04-25T04:39:38.573Z,4.23
2023-04-25T04:42:06.029Z,4.97
2023-04-25T04:44:36.376Z,5.33
2023-04-25T04:47:07.097Z,4.27
2023-04-25T04:49:34.475Z,5.20
2023-04-25T04:52:01.707Z,4.47
2023-04-25T04:54:29.028Z,4.47
2023-04-25T04:56:56.180Z,4.60
2023-04-25T04:59:23.496Z,4.60
2023-04-25T05:01:50.939Z,5.43
2023-04-25T05:04:18.304Z,4.67
2023-04-25T05:06:48.193Z,4.97
2023-04-25T05:09:16.174Z,5.20
2023-04-25T05:11:43.305Z,4.73
2023-04-25T05:14:10.447Z,5.23
2023-04-25T05:16:37.680Z,5.53
2023-04-25T05:19:04.897Z,5.10
2023-04-25T05:21:32.331Z,4.90
2023-04-25T05:23:59.371Z,3.90
2023-04-25T05:26:26.492Z,4.77
2023-04-25T05:28:53.559Z,4.40
2023-04-25T05:31:20.778Z,5.20
2023-04-25T05:33:47.957Z,4.97
2023-04-25T05:36:15.244Z,4.70
2023-04-25T05:41:25.008Z,5.00
2023-04-25T05:43:53.010Z,4.37
2023-04-25T05:46:21.407Z,4.67
2023-04-25T05:48:48.530Z,5.03
2023-04-25T05:51:15.688Z,4.00
2023-04-25T05:53:42.731Z,10.07
2023-04-25T05:56:09.842Z,5.60
2023-04-25T05:58:36.953Z,4.33
2023-04-25T06:01:04.624Z,4.83
2023-04-25T06:06:21.295Z,4.00
2023-04-25T06:08:48.401Z,4.77
2023-04-25T06:11:15.561Z,3.73
2023-04-25T06:13:42.706Z,4.60
2023-04-25T06:16:09.790Z,4.03
2023-04-25T06:18:37.136Z,3.90
2023-04-25T06:21:04.317Z,3.87
2023-04-25T06:23:31.426Z,3.70
2023-04-25T06:25:58.643Z,4.00
2023-04-25T06:28:26.016Z,3.80
2023-04-25T06:30:53.144Z,4.10
2023-04-25T06:33:21.229Z,4.37
2023-04-25T06:35:48.432Z,4.60
2023-04-25T06:38:15.848Z,5.40
2023-04-25T06:40:42.937Z,4.60
2023-04-25T06:43:10.067Z,3.30
2023-04-25T06:45:37.154Z,3.23
2023-04-25T06:48:04.389Z,3.03
2023-04-25T06:50:31.581Z,3.63
2023-04-25T06:52:58.711Z,3.67
2023-04-25T06:55:25.771Z,3.47
2023-04-25T06:57:52.818Z,3.93
2023-04-25T07:00:20.438Z,4.17
2023-04-25T07:02:47.807Z,3.70
2023-04-25T07:05:15.829Z,3.47
2023-04-25T07:07:44.028Z,2.93
2023-04-25T07:10:11.282Z,4.40
2023-04-25T07:12:38.405Z,3.63
2023-04-25T07:15:07.120Z,3.73
2023-04-25T07:17:35.003Z,3.33
2023-04-25T07:20:02.170Z,3.60
2023-04-25T07:22:29.226Z,3.33
2023-04-25T07:24:56.555Z,3.00
2023-04-25T07:27:23.718Z,2.70
2023-04-25T07:29:50.812Z,3.53
2023-04-25T07:32:17.942Z,3.47
2023-04-25T07:34:45.054Z,3.97
2023-04-25T07:37:12.133Z,3.60
2023-04-25T07:39:39.379Z,2.70
2023-04-25T07:42:09.169Z,3.20
2023-04-25T07:44:41.246Z,3.30
2023-04-25T07:47:08.469Z,3.43
2023-04-25T07:49:36.352Z,2.93
2023-04-25T07:52:04.098Z,3.73
2023-04-25T07:54:31.342Z,3.03
2023-04-25T07:56:58.432Z,3.50
2023-04-25T07:59:26.411Z,4.23
2023-04-25T08:01:54.619Z,3.20
2023-04-25T08:04:21.875Z,2.80
2023-04-25T08:06:49.322Z,3.20
2023-04-25T08:09:16.671Z,3.37
2023-04-25T08:11:44.144Z,3.10
2023-04-25T08:14:11.373Z,2.77
2023-04-25T08:16:38.454Z,2.90
2023-04-25T08:19:05.982Z,2.53
2023-04-25T08:21:33.988Z,3.00
2023-04-25T08:24:03.554Z,2.47
2023-04-25T08:26:31.056Z,3.23
2023-04-25T08:28:58.109Z,2.67
2023-04-25T08:31:25.209Z,2.73
2023-04-25T08:33:52.961Z,2.80
2023-04-25T08:36:31.478Z,2.50
2023-04-25T08:39:08.247Z,3.23
2023-04-25T08:41:36.515Z,2.57
2023-04-25T08:44:05.605Z,3.20
2023-04-25T08:46:34.300Z,2.80
2023-04-25T08:49:04.118Z,2.50
2023-04-25T08:51:33.521Z,2.97
2023-04-25T08:56:46.406Z,2.10
2023-04-25T08:59:14.365Z,2.10
2023-04-25T09:01:41.761Z,2.80
2023-04-25T09:04:09.082Z,2.33
2023-04-25T09:06:36.488Z,2.30
2023-04-25T09:09:05.907Z,2.10
2023-04-25T09:11:34.056Z,2.20
2023-04-25T09:14:14.285Z,1.80
2023-04-25T09:17:05.798Z,2.77
2023-04-25T09:19:41.789Z,2.43
2023-04-25T09:22:09.656Z,2.10
2023-04-25T09:24:45.354Z,2.83
2023-04-25T09:27:13.270Z,2.30
2023-04-25T09:29:42.986Z,2.40
2023-04-25T09:32:14.036Z,2.27
2023-04-25T09:34:42.811Z,2.10
2023-04-25T09:37:13.020Z,2.10
2023-04-25T09:39:40.628Z,2.27
2023-04-25T09:42:07.781Z,2.40
2023-04-25T09:44:34.857Z,2.17
2023-04-25T09:47:04.310Z,2.43
2023-04-25T09:49:31.557Z,2.03
2023-04-25T09:51:59.246Z,2.53
2023-04-25T09:54:29.600Z,2.43
2023-04-25T09:56:59.193Z,2.10
2023-04-25T09:59:26.576Z,1.70
2023-04-25T10:01:54.059Z,2.77
2023-04-25T10:04:24.498Z,2.27
2023-04-25T10:06:53.239Z,1.93
2023-04-25T10:09:22.297Z,1.80
2023-04-25T10:11:49.469Z,1.60
2023-04-25T10:14:18.219Z,2.30
2023-04-25T10:16:46.106Z,1.87
2023-04-25T10:19:14.204Z,2.00
2023-04-25T10:21:45.890Z,2.33
2023-04-25T10:24:13.401Z,2.53
2023-04-25T10:26:40.937Z,2.37
2023-04-25T10:29:07.963Z,1.90
2023-04-25T10:31:35.743Z,1.60
2023-04-25T10:34:02.980Z,1.83
2023-04-25T10:36:33.744Z,2.23
2023-04-25T10:39:07.885Z,1.73
2023-04-25T10:41:49.034Z,1.67
2023-04-25T10:44:17.364Z,2.20
2023-04-25T10:46:46.249Z,2.37
2023-04-25T10:49:29.954Z,1.90
2023-04-25T10:52:17.557Z,2.37
2023-04-25T10:54:48.674Z,1.80
2023-04-25T10:57:30.418Z,2.27
2023-04-25T11:00:07.681Z,1.97
2023-04-25T11:02:38.892Z,1.67
2023-04-25T11:05:06.565Z,2.17
2023-04-25T11:08:00.056Z,1.97
2023-04-25T11:10:32.223Z,2.00
2023-04-25T11:12:59.558Z,2.37
2023-04-25T11:15:26.909Z,2.00
2023-04-25T11:17:54.717Z,2.30
2023-04-25T11:20:22.260Z,1.87
2023-04-25T11:22:51.021Z,2.20
2023-04-25T11:25:19.808Z,2.13
2023-04-25T11:27:53.413Z,2.07
2023-04-25T11:30:21.571Z,2.60
2023-04-25T11:32:48.745Z,2.00
2023-04-25T11:35:16.547Z,2.00
2023-04-25T11:37:44.500Z,2.00
2023-04-25T11:40:12.667Z,1.90
2023-04-25T11:42:46.789Z,2.00
2023-04-25T11:45:14.634Z,2.50
2023-04-25T11:47:41.742Z,1.60
2023-04-25T11:50:09.424Z,2.53
2023-04-25T11:52:40.187Z,1.67
2023-04-25T11:55:11.524Z,1.37
2023-04-25T11:57:42.732Z,1.37
2023-04-25T12:00:14.502Z,1.40
2023-04-25T12:02:54.391Z,1.67
2023-04-25T12:05:32.160Z,1.43
2023-04-25T12:07:59.787Z,1.57
2023-04-25T12:10:27.207Z,0.83
2023-04-25T12:12:54.903Z,1.53
2023-04-25T12:15:25.923Z,1.53
2023-04-25T12:17:54.378Z,1.23
2023-04-25T12:20:24.640Z,1.23
2023-04-25T12:22:52.716Z,1.27
2023-04-25T12:25:37.676Z,1.60
2023-04-25T12:28:12.178Z,1.07
2023-04-25T12:30:57.474Z,1.77
2023-04-25T12:33:25.144Z,1.30
2023-04-25T12:35:52.707Z,1.70
2023-04-25T12:38:25.515Z,1.80
2023-04-25T12:40:52.720Z,2.10
2023-04-25T12:43:20.077Z,2.23
2023-04-25T12:45:50.116Z,1.57
2023-04-25T12:48:17.923Z,1.93
2023-04-25T12:50:46.380Z,1.70
2023-04-25T12:53:14.042Z,2.17
2023-04-25T12:55:41.457Z,1.90
2023-04-25T12:58:08.535Z,2.10
2023-04-25T13:00:35.675Z,1.70
2023-04-25T13:03:03.317Z,1.70
2023-04-25T13:05:31.298Z,1.60
2023-04-25T13:07:58.382Z,1.60
2023-04-25T13:10:25.995Z,1.83
2023-04-25T13:12:53.050Z,1.50
2023-04-25T13:15:20.168Z,1.43
2023-04-25T13:17:47.682Z,1.47
2023-04-25T13:20:15.919Z,1.60
2023-04-25T13:22:44.138Z,1.57
2023-04-25T13:25:11.310Z,1.90
2023-04-25T13:27:40.113Z,1.50
2023-04-25T13:30:10.386Z,1.80
2023-04-25T13:32:38.009Z,1.67
2023-04-25T13:35:09.950Z,1.90
2023-04-25T13:37:38.113Z,1.90
2023-04-25T13:40:06.649Z,2.00
2023-04-25T13:42:34.041Z,2.27
2023-04-25T13:45:01.403Z,2.33
2023-04-25T13:47:29.389Z,2.00
2023-04-25T13:49:56.563Z,1.73
2023-04-25T13:52:25.197Z,1.40
2023-04-25T13:54:58.042Z,1.27
2023-04-25T13:57:25.343Z,1.80
2023-04-25T13:59:52.997Z,1.83
2023-04-25T14:02:20.064Z,1.77
2023-04-25T14:04:47.243Z,2.00
2023-04-25T14:07:16.986Z,1.90
2023-04-25T14:09:44.164Z,1.70
2023-04-25T14:12:12.068Z,1.90
2023-04-25T14:14:39.561Z,2.40
2023-04-25T14:17:07.713Z,2.00
2023-04-25T14:19:34.913Z,1.80
2023-04-25T14:22:02.012Z,1.90
2023-04-25T14:24:29.070Z,1.50
2023-04-25T14:26:56.121Z,1.83
2023-04-25T14:29:23.174Z,1.97
2023-04-25T14:31:50.252Z,1.53
2023-04-25T14:34:17.342Z,1.47
2023-04-25T14:36:44.400Z,1.97
2023-04-25T14:39:11.481Z,1.77
2023-04-25T14:41:38.661Z,1.80
2023-04-25T14:44:06.027Z,1.90
2023-04-25T14:46:33.349Z,1.77
2023-04-25T14:49:00.564Z,2.13
2023-04-25T14:51:27.994Z,1.87
2023-04-25T14:53:55.482Z,2.40
2023-04-25T14:56:22.687Z,1.73
2023-04-25T14:58:49.778Z,1.60
2023-04-25T15:01:17.248Z,1.77
2023-04-25T15:03:44.673Z,1.80
2023-04-25T15:06:11.991Z,1.93
2023-04-25T15:08:39.096Z,1.50
2023-04-25T15:11:06.375Z,1.40
2023-04-25T15:13:35.637Z,1.47
2023-04-25T15:16:02.696Z,1.73
2023-04-25T15:18:29.817Z,1.30
2023-04-25T15:20:58.180Z,2.13
2023-04-25T15:23:26.722Z,1.50
2023-04-25T15:25:54.984Z,2.00
2023-04-25T15:28:22.265Z,2.03
2023-04-25T15:30:49.922Z,1.60
2023-04-25T15:33:17.056Z,2.10
2023-04-25T15:35:44.115Z,1.50
2023-04-25T15:38:11.806Z,1.67
2023-04-25T15:40:39.254Z,1.87
2023-04-25T15:43:07.433Z,2.10
2023-04-25T15:45:35.885Z,2.17
2023-04-25T15:48:04.072Z,1.80
2023-04-25T15:50:31.830Z,1.80
2023-04-25T15:53:01.688Z,1.80
2023-04-25T15:55:29.193Z,1.97
2023-04-25T15:57:56.746Z,1.83
2023-04-25T16:00:23.914Z,1.83
2023-04-25T16:02:51.614Z,2.10
2023-04-25T16:05:19.303Z,1.77
2023-04-25T16:07:46.837Z,1.67
2023-04-25T16:10:14.718Z,1.37
2023-04-25T16:12:41.772Z,1.80
2023-04-25T16:15:09.420Z,1.50
2023-04-25T16:17:36.685Z,1.47
2023-04-25T16:20:10.224Z,2.93
2023-04-25T16:22:38.788Z,1.80
2023-04-25T16:25:06.440Z,2.63
2023-04-25T16:27:35.383Z,1.93
2023-04-25T16:30:03.130Z,1.93
2023-04-25T16:32:30.248Z,2.30
2023-04-25T16:34:58.815Z,2.33
2023-04-25T16:37:26.830Z,2.20
2023-04-25T16:39:53.978Z,1.87
2023-04-25T16:42:21.077Z,2.10
2023-04-25T16:44:48.296Z,2.53
2023-04-25T16:50:06.628Z,2.17
2023-04-25T16:52:33.788Z,1.93
2023-04-25T16:55:01.375Z,2.17
2023-04-25T16:57:28.480Z,1.50
2023-04-25T16:59:56.562Z,9.60
2023-04-25T17:02:25.939Z,3.93
2023-04-25T17:04:59.009Z,1.87
2023-04-25T17:07:26.950Z,1.60
2023-04-25T17:09:54.532Z,1.90
2023-04-25T17:12:22.225Z,2.00
2023-04-25T17:14:50.084Z,1.80
2023-04-25T17:17:18.781Z,10.07
2023-04-25T17:19:46.742Z,2.50
2023-04-25T17:22:13.925Z,2.03
2023-04-25T17:24:41.410Z,2.10
2023-04-25T17:27:08.632Z,2.10
2023-04-25T17:29:35.714Z,5.73
2023-04-25T17:32:06.663Z,2.10
2023-04-25T17:34:34.696Z,2.20
2023-04-25T17:37:01.977Z,2.00
2023-04-25T17:39:29.431Z,2.10
2023-04-25T17:41:58.958Z,2.10
2023-04-25T17:44:27.448Z,2.13
2023-04-25T17:46:56.761Z,2.13
2023-04-25T17:49:23.898Z,2.40
2023-04-25T17:51:50.953Z,1.87
2023-04-25T17:54:18.374Z,2.30
2023-04-25T17:56:45.682Z,1.90
2023-04-25T17:59:12.800Z,2.17
2023-04-25T18:01:42.237Z,2.67
2023-04-25T18:04:13.349Z,1.97
2023-04-25T18:06:41.093Z,1.90
2023-04-25T18:09:16.015Z,2.30
2023-04-25T18:11:46.769Z,2.03
2023-04-25T18:14:14.621Z,2.10
2023-04-25T18:16:42.843Z,2.10
2023-04-25T18:19:11.977Z,2.00
2023-04-25T18:21:40.181Z,1.90
2023-04-25T18:24:09.604Z,2.23
2023-04-25T18:26:36.777Z,3.60
2023-04-25T18:29:03.981Z,2.50
2023-04-25T18:31:32.104Z,2.40
2023-04-25T18:33:59.427Z,2.57
2023-04-25T18:36:29.319Z,2.00
2023-04-25T18:39:08.707Z,2.67
2023-04-25T18:41:55.127Z,1.90
2023-04-25T18:44:25.958Z,2.13
2023-04-25T18:46:53.161Z,2.10
2023-04-25T18:49:20.273Z,2.10
2023-04-25T18:51:48.713Z,3.03
2023-04-25T18:54:16.099Z,2.63
2023-04-25T18:56:43.242Z,2.07
2023-04-25T18:59:11.145Z,2.27
2023-04-25T19:01:38.576Z,2.17
2023-04-25T19:04:07.041Z,2.30
2023-04-25T19:06:34.445Z,1.90
2023-04-25T19:09:02.408Z,2.17
2023-04-25T19:11:29.785Z,2.07
2023-04-25T19:13:57.024Z,2.27
2023-04-25T19:16:28.622Z,2.60
2023-04-25T19:18:57.303Z,2.73
2023-04-25T19:21:24.518Z,2.50
2023-04-25T19:23:55.399Z,1.87
2023-04-25T19:26:22.668Z,2.57
2023-04-25T19:29:04.451Z,2.30
2023-04-25T19:31:31.815Z,1.87
2023-04-25T19:33:59.282Z,2.00
2023-04-25T19:36:27.794Z,2.00
2023-04-25T19:39:02.320Z,2.07
2023-04-25T19:41:29.933Z,1.90
2023-04-25T19:43:57.090Z,1.80
2023-04-25T19:46:24.853Z,2.03
2023-04-25T19:48:51.995Z,2.23
2023-04-25T19:51:19.160Z,2.20
2023-04-25T19:53:46.323Z,1.93
2023-04-25T19:56:13.927Z,1.87
2023-04-25T19:58:43.303Z,3.00
2023-04-25T20:01:10.474Z,2.17
2023-04-25T20:03:37.696Z,3.00
2023-04-25T20:06:05.811Z,2.60
2023-04-25T20:08:32.939Z,2.23
2023-04-25T20:11:00.056Z,2.03
2023-04-25T20:13:27.197Z,2.30
2023-04-25T20:15:54.345Z,3.17
2023-04-25T20:18:21.574Z,2.87
2023-04-25T20:20:48.659Z,3.43
2023-04-25T20:23:16.054Z,2.43
2023-04-25T20:25:43.445Z,3.43
2023-04-25T20:28:14.993Z,2.70
2023-04-25T20:30:42.145Z,2.17
2023-04-25T20:33:09.544Z,3.00
2023-04-25T20:35:36.789Z,2.70
2023-04-25T20:38:03.860Z,2.70
2023-04-25T20:40:31.532Z,2.80
2023-04-25T20:42:58.703Z,2.37
2023-04-25T20:45:29.812Z,3.23
2023-04-25T20:47:57.017Z,2.53
2023-04-25T20:50:24.361Z,2.60
2023-04-25T20:52:51.498Z,2.37
2023-04-25T20:55:19.643Z,2.23
2023-04-25T20:57:46.814Z,2.73
2023-04-25T21:00:27.182Z,2.17
2023-04-25T21:02:54.650Z,2.33
2023-04-25T21:05:22.305Z,2.00
2023-04-25T21:07:50.013Z,2.33
2023-04-25T21:10:17.417Z,2.40
2023-04-25T21:12:50.702Z,2.37
2023-04-25T21:15:20.308Z,2.67
2023-04-25T21:17:50.524Z,2.93
2023-04-25T21:20:18.507Z,2.80
2023-04-25T21:22:50.424Z,2.40
2023-04-25T21:25:20.374Z,2.87
2023-04-25T21:27:49.363Z,2.57
2023-04-25T21:30:23.120Z,2.77
2023-04-25T21:32:51.433Z,3.73
2023-04-25T21:35:19.452Z,2.80
2023-04-25T21:37:46.891Z,2.93
2023-04-25T21:40:14.548Z,2.97
2023-04-25T21:42:47.817Z,2.70
2023-04-25T21:45:14.868Z,3.03
2023-04-25T21:47:42.079Z,3.20
2023-04-25T21:50:09.427Z,2.80
2023-04-25T21:52:36.913Z,2.37
2023-04-25T21:55:04.108Z,2.73
2023-04-25T21:57:31.267Z,3.20
2023-04-25T21:59:59.017Z,3.63
2023-04-25T22:02:27.397Z,2.53
2023-04-25T22:04:54.582Z,2.70
2023-04-25T22:07:21.738Z,3.00
2023-04-25T22:09:55.150Z,2.90
2023-04-25T22:12:23.557Z,2.87
2023-04-25T22:14:51.075Z,3.00
2023-04-25T22:17:19.287Z,2.83
2023-04-25T22:19:47.005Z,2.80
2023-04-25T22:22:14.680Z,2.97
2023-04-25T22:24:42.117Z,3.37
2023-04-25T22:27:10.914Z,3.07
2023-04-25T22:29:38.261Z,3.10
2023-04-25T22:32:05.446Z,3.20
2023-04-25T22:34:32.528Z,3.17
2023-04-25T22:36:59.613Z,2.70
2023-04-25T22:39:26.784Z,3.00
2023-04-25T22:41:54.323Z,3.07
2023-04-25T22:44:26.330Z,3.10
2023-04-25T22:46:54.721Z,3.13
2023-04-25T22:49:21.770Z,4.20
2023-04-25T22:51:53.973Z,4.20
2023-04-25T22:54:21.573Z,2.70
2023-04-25T22:56:48.653Z,3.87
2023-04-25T22:59:16.051Z,3.00
2023-04-25T23:01:43.669Z,3.20
2023-04-25T23:04:11.369Z,3.60
2023-04-25T23:06:39.920Z,3.00
2023-04-25T23:09:08.917Z,3.40
2023-04-25T23:11:37.257Z,2.90
2023-04-25T23:14:04.602Z,3.77
2023-04-25T23:16:31.732Z,3.47
2023-04-25T23:18:58.859Z,3.83
2023-04-25T23:21:26.748Z,3.73
2023-04-25T23:23:53.993Z,3.13
2023-04-25T23:26:23.842Z,4.10
2023-04-25T23:28:51.750Z,3.10
2023-04-25T23:31:19.006Z,3.50
2023-04-25T23:33:46.274Z,3.53
2023-04-25T23:36:21.045Z,3.57
2023-04-25T23:38:48.646Z,3.53
2023-04-25T23:41:16.019Z,3.67
2023-04-25T23:43:43.480Z,3.57
2023-04-25T23:46:12.543Z,3.47
2023-04-25T23:48:40.152Z,3.57
2023-04-25T23:51:07.264Z,3.50
2023-04-25T23:53:34.385Z,3.97
2023-04-25T23:56:01.662Z,4.00
2023-04-25T23:58:28.714Z,3.93
